Terminal Aerodrome Forecast
Issued by NWS

Home | Current Version | Previous Version | Text Only | Print | Product List | Glossary On
Versions: 1 2 3 4 5 6 7 8 9 10 11 12 13 14 15 16 17 18 19 20 21 22 23 24 25 26 27 28 29 30
000
FTUS41 KBOX 020535
TAFFMH
TAF
KFMH 020535Z 0206/0306 31004KT P6SM FEW100
     FM021100 34003KT P6SM SCT050
     FM021400 02004KT P6SM SCT060
     FM021700 19009KT P6SM BKN060
     FM030500 22006KT P6SM VCSH OVC060=

USA.gov is the U.S. government's official web portal to all federal, state and local government web resources and services.